Terminal Aerodrome Forecast
Issued by NWS Omaha/Valley, NE

Home | Current Version | Previous Version | Text Only | Print | Product List | Glossary On
Versions: 1 2 3 4 5 6 7 8 9 10 11 12 13 14 15 16 17 18 19 20 21 22 23 24 25 26 27 28 29 30 31 32 33 34 35
000
FTUS43 KOAX 181124
TAFOMA
TAF
KOMA 181124Z 1812/1912 12005KT P6SM OVC050
      TEMPO 1812/1813 5SM -SN BKN045
     FM181300 11004KT 4SM -SN SCT025 OVC040
     FM181600 15004KT P6SM OVC020
     FM190800 17005KT 5SM BR OVC015=

USA.gov is the U.S. government's official web portal to all federal, state and local government web resources and services.